Time;durP1;ratioP1;P1;durP2;ratioP2;P2;SDS_P1;SDS_P2;PMS_P1;PMS_P2;Temp;Humidity;BMP_temperature;BMP_pressure;BME280_temperature;BME280_humidity;BME280_pressure;Samples;Min_cycle;Max_cycle;Signal;HPM_P1;HPM_P2
2023/06/06 00:00:48;;;;;;;5.47;3.00;;;11.80;99.90;;;;;;5012209;28;20441;-67
2023/06/06 00:03:14;;;;;;;11.27;3.10;;;11.70;99.90;;;;;;5013407;28;20067;-67
2023/06/06 00:05:39;;;;;;;11.00;2.70;;;11.70;99.90;;;;;;5014712;28;20029;-66
2023/06/06 00:08:07;;;;;;;4.80;2.77;;;11.70;99.90;;;;;;5013239;28;20100;-73
2023/06/06 00:10:34;;;;;;;7.00;3.17;;;11.60;99.90;;;;;;5026445;28;20326;-67
2023/06/06 00:13:01;;;;;;;5.88;2.90;;;11.60;99.90;;;;;;4999489;28;20058;-66
2023/06/06 00:15:28;;;;;;;6.20;2.75;;;11.60;99.90;;;;;;5013490;28;20041;-66
2023/06/06 00:17:55;;;;;;;6.72;3.45;;;11.50;99.90;;;;;;5013722;28;20424;-67
2023/06/06 00:20:22;;;;;;;7.75;2.50;;;11.50;99.90;;;;;;5012971;28;20428;-67
2023/06/06 00:22:49;;;;;;;8.45;3.22;;;11.60;99.90;;;;;;5014840;28;20082;-68
2023/06/06 00:25:14;;;;;;;5.70;2.90;;;11.50;99.90;;;;;;5014641;28;20032;-74
2023/06/06 00:27:40;;;;;;;5.47;2.60;;;11.50;99.90;;;;;;5014852;28;20033;-66
2023/06/06 00:30:08;;;;;;;7.00;3.10;;;11.50;99.90;;;;;;5014902;28;20332;-75
2023/06/06 00:32:33;;;;;;;4.40;2.60;;;11.50;99.90;;;;;;5015023;28;20319;-66
2023/06/06 00:34:59;;;;;;;6.30;2.87;;;11.50;99.90;;;;;;5013159;28;20037;-68
2023/06/06 00:37:25;;;;;;;7.00;3.07;;;11.50;99.90;;;;;;5014424;28;20022;-68
2023/06/06 00:39:50;;;;;;;8.10;2.97;;;11.50;99.90;;;;;;5014802;28;20023;-68
2023/06/06 00:42:16;;;;;;;4.77;2.70;;;11.50;99.90;;;;;;5014557;28;20033;-73
2023/06/06 00:44:42;;;;;;;8.63;2.57;;;11.50;99.90;;;;;;5015093;28;20014;-75
2023/06/06 00:47:09;;;;;;;8.53;3.53;;;11.50;99.90;;;;;;5014828;28;20056;-65
2023/06/06 00:49:36;;;;;;;6.95;3.10;;;11.50;99.90;;;;;;5012255;28;20021;-75
2023/06/06 00:52:02;;;;;;;6.57;2.95;;;11.50;99.90;;;;;;5003382;28;20076;-66
2023/06/06 00:54:29;;;;;;;6.10;2.87;;;11.40;99.90;;;;;;5012749;28;20029;-67
2023/06/06 00:56:56;;;;;;;11.57;3.60;;;11.40;99.90;;;;;;5012540;28;20121;-66
2023/06/06 00:59:23;;;;;;;6.28;3.03;;;11.40;99.90;;;;;;5018778;28;20034;-68
2023/06/06 01:01:48;;;;;;;;;;;11.40;99.90;;;;;;5014043;28;20061;-67
2023/06/06 01:04:15;;;;;;;4.22;2.55;;;11.40;99.90;;;;;;5012143;28;19909;-67
2023/06/06 01:06:41;;;;;;;;;;;11.40;99.90;;;;;;5014357;28;20061;-68
2023/06/06 01:09:09;;;;;;;6.95;2.60;;;11.40;99.90;;;;;;5013672;28;19909;-71
2023/06/06 01:12:09;;;;;;;5.97;2.60;;;11.40;99.90;;;;;;5013799;28;20099;-67
2023/06/06 01:14:41;;;;;;;6.00;2.72;;;11.40;99.90;;;;;;5011881;28;20032;-67
2023/06/06 01:17:09;;;;;;;7.68;3.22;;;11.30;99.90;;;;;;5013999;28;20098;-74
2023/06/06 01:19:37;;;;;;;6.20;3.00;;;11.20;99.90;;;;;;5013186;28;20041;-74
2023/06/06 01:22:04;;;;;;;5.78;3.08;;;11.30;99.90;;;;;;5013302;28;20132;-67
2023/06/06 01:24:31;;;;;;;3.83;2.75;;;11.20;99.90;;;;;;5011999;28;20072;-67
2023/06/06 01:26:57;;;;;;;10.45;3.28;;;11.20;99.90;;;;;;5012697;28;20032;-66
2023/06/06 01:29:23;;;;;;;6.25;2.83;;;11.20;99.90;;;;;;5013713;28;20109;-66
2023/06/06 01:32:22;;;;;;;4.38;2.33;;;11.30;99.90;;;;;;5013101;28;20029;-68
2023/06/06 01:35:09;;;;;;;4.45;2.30;;;11.30;99.90;;;;;;5016944;28;20037;-69
2023/06/06 01:37:48;;;;;;;4.38;2.33;;;11.30;99.90;;;;;;5013819;28;20048;-68
2023/06/06 01:40:18;;;;;;;7.57;3.20;;;11.30;99.90;;;;;;5013378;28;20113;-67
2023/06/06 01:42:47;;;;;;;7.22;2.63;;;11.20;99.90;;;;;;5012413;28;20034;-69
2023/06/06 01:45:16;;;;;;;8.85;2.78;;;11.20;99.90;;;;;;5013713;28;20451;-68
2023/06/06 01:47:43;;;;;;;5.95;2.55;;;11.30;99.90;;;;;;5012568;28;20497;-67
2023/06/06 01:50:09;;;;;;;7.65;3.05;;;11.20;99.90;;;;;;5013236;28;20049;-66
2023/06/06 01:52:39;;;;;;;9.45;2.83;;;11.20;99.90;;;;;;5012794;28;20114;-68
2023/06/06 01:55:05;;;;;;;4.93;2.25;;;11.30;99.90;;;;;;5012708;28;20341;-66
2023/06/06 01:57:32;;;;;;;8.00;2.80;;;11.30;99.90;;;;;;5012838;28;20060;-67
2023/06/06 01:59:58;;;;;;;14.60;2.83;;;11.20;99.90;;;;;;5013682;28;20072;-68
2023/06/06 02:02:24;;;;;;;4.18;1.92;;;11.20;99.90;;;;;;5013169;28;20030;-66
2023/06/06 02:04:50;;;;;;;18.43;2.43;;;11.30;99.90;;;;;;5013548;28;20081;-65
2023/06/06 02:07:16;;;;;;;7.67;2.47;;;11.20;99.90;;;;;;5014375;28;20049;-66
2023/06/06 02:09:43;;;;;;;5.22;2.83;;;11.30;99.90;;;;;;5011902;28;20109;-66
2023/06/06 02:12:09;;;;;;;6.55;2.90;;;11.30;99.90;;;;;;5014226;28;20042;-67
2023/06/06 02:14:35;;;;;;;4.78;2.28;;;11.30;99.90;;;;;;5011187;28;20444;-66
2023/06/06 02:17:01;;;;;;;8.17;2.87;;;11.30;99.90;;;;;;5013647;28;20033;-68
2023/06/06 02:19:27;;;;;;;6.07;2.63;;;11.30;99.90;;;;;;5013164;28;20030;-68
2023/06/06 02:21:53;;;;;;;9.82;2.80;;;11.30;99.90;;;;;;5009883;28;20038;-68
2023/06/06 02:24:18;;;;;;;8.87;2.87;;;11.30;99.90;;;;;;5012547;28;20373;-66
2023/06/06 02:26:44;;;;;;;6.87;2.73;;;11.30;99.90;;;;;;5012815;28;20109;-68
2023/06/06 02:29:10;;;;;;;4.50;2.50;;;11.30;99.90;;;;;;5016273;28;20018;-74
2023/06/06 02:31:36;;;;;;;7.47;2.80;;;11.30;99.90;;;;;;5019938;28;20030;-66
2023/06/06 02:34:02;;;;;;;6.53;3.57;;;11.30;99.90;;;;;;5015803;28;20031;-66
2023/06/06 02:36:29;;;;;;;4.20;2.67;;;11.30;99.90;;;;;;5016751;28;20145;-68
2023/06/06 02:38:56;;;;;;;5.03;2.30;;;11.30;99.90;;;;;;5019388;28;20439;-68
2023/06/06 02:41:23;;;;;;;5.93;2.55;;;11.30;99.90;;;;;;5016917;28;20044;-67
2023/06/06 02:43:49;;;;;;;7.50;3.13;;;11.30;99.90;;;;;;5033092;28;20372;-67
2023/06/06 02:46:15;;;;;;;6.38;2.58;;;11.30;99.90;;;;;;5017221;28;20030;-68
2023/06/06 02:48:45;;;;;;;5.83;2.50;;;11.30;99.90;;;;;;5018582;28;20049;-66
2023/06/06 02:51:11;;;;;;;7.40;2.78;;;11.30;99.90;;;;;;5036838;28;20681;-67
2023/06/06 02:53:40;;;;;;;7.03;2.45;;;11.30;99.90;;;;;;5022109;28;20036;-66
2023/06/06 02:56:06;;;;;;;6.78;2.53;;;11.30;99.90;;;;;;5017404;28;20120;-66
2023/06/06 02:58:32;;;;;;;2.15;1.52;;;11.30;99.90;;;;;;5030528;28;20017;-66
2023/06/06 03:01:00;;;;;;;12.30;3.63;;;11.30;99.90;;;;;;5020753;28;20062;-67
2023/06/06 03:03:26;;;;;;;5.50;2.58;;;11.30;99.90;;;;;;5019271;28;20436;-66
2023/06/06 03:05:53;;;;;;;7.03;2.73;;;11.30;99.90;;;;;;5015423;28;20113;-66
2023/06/06 03:08:19;;;;;;;3.97;2.17;;;11.30;99.90;;;;;;5026151;28;20025;-66
2023/06/06 03:10:49;;;;;;;5.45;2.58;;;11.30;99.90;;;;;;5031800;28;20038;-67
2023/06/06 03:13:15;;;;;;;11.65;3.05;;;11.30;99.90;;;;;;5029765;28;20083;-67
2023/06/06 03:15:44;;;;;;;5.40;2.30;;;11.30;99.90;;;;;;5028309;28;20029;-67
2023/06/06 03:18:11;;;;;;;5.45;2.13;;;11.30;99.90;;;;;;5023154;28;20061;-68
2023/06/06 03:20:40;;;;;;;6.25;3.15;;;11.30;99.90;;;;;;5029142;28;20017;-67
2023/06/06 03:23:07;;;;;;;8.18;2.35;;;11.40;99.90;;;;;;5029993;28;20021;-74
2023/06/06 03:25:33;;;;;;;4.97;2.70;;;11.30;99.90;;;;;;5025623;28;20409;-66
2023/06/06 03:28:00;;;;;;;6.63;2.95;;;11.40;99.90;;;;;;5029476;28;20059;-68
2023/06/06 03:30:25;;;;;;;6.07;2.75;;;11.40;99.90;;;;;;5030825;28;20022;-68
2023/06/06 03:32:51;;;;;;;10.37;2.23;;;11.40;99.90;;;;;;5028041;28;20116;-69
2023/06/06 03:35:18;;;;;;;7.63;2.67;;;11.40;99.90;;;;;;5029776;28;20080;-68
2023/06/06 03:37:44;;;;;;;9.20;1.88;;;11.50;99.90;;;;;;5033055;28;20033;-67
2023/06/06 03:40:11;;;;;;;6.90;2.40;;;11.40;99.90;;;;;;5031735;28;20036;-68
2023/06/06 03:42:37;;;;;;;7.93;2.45;;;11.40;99.90;;;;;;5027202;28;20313;-66
2023/06/06 03:45:04;;;;;;;10.80;2.60;;;11.50;99.90;;;;;;5026535;28;20021;-68
2023/06/06 03:47:30;;;;;;;9.32;2.55;;;11.50;99.90;;;;;;5023062;28;20080;-67
2023/06/06 03:49:56;;;;;;;9.33;2.83;;;11.50;99.90;;;;;;5029821;28;20026;-68
2023/06/06 03:52:22;;;;;;;13.20;2.67;;;11.60;99.90;;;;;;5029719;28;20415;-68
2023/06/06 03:54:48;;;;;;;6.13;2.45;;;11.60;99.90;;;;;;5028958;28;20351;-67
2023/06/06 03:57:13;;;;;;;6.37;2.27;;;11.50;99.90;;;;;;5022279;28;20054;-68
2023/06/06 03:59:39;;;;;;;6.00;1.90;;;11.60;99.90;;;;;;5032501;28;20047;-66
2023/06/06 04:02:05;;;;;;;9.27;2.53;;;11.60;99.90;;;;;;5028403;28;20026;-67
2023/06/06 04:04:31;;;;;;;5.82;2.70;;;11.70;99.90;;;;;;5025141;28;20021;-68
2023/06/06 04:07:00;;;;;;;10.93;3.27;;;11.80;99.90;;;;;;5029821;28;20040;-75
2023/06/06 04:09:26;;;;;;;4.28;1.95;;;11.80;99.90;;;;;;5024194;28;20029;-67
2023/06/06 04:11:51;;;;;;;7.10;2.17;;;11.90;99.90;;;;;;5029155;28;20025;-66
2023/06/06 04:14:17;;;;;;;4.67;2.07;;;11.90;99.90;;;;;;5028015;28;20324;-66
2023/06/06 04:16:43;;;;;;;11.53;2.33;;;12.00;99.90;;;;;;5025629;28;20034;-68
2023/06/06 04:19:08;;;;;;;9.53;2.40;;;12.10;99.90;;;;;;5023982;28;20030;-69
2023/06/06 04:21:34;;;;;;;5.43;2.53;;;12.10;99.90;;;;;;5025764;28;20460;-67
2023/06/06 04:24:00;;;;;;;9.80;2.63;;;12.20;99.90;;;;;;5030339;28;20022;-75
2023/06/06 04:26:31;;;;;;;12.77;4.07;;;12.20;99.90;;;;;;5027787;28;20021;-67
2023/06/06 04:29:00;;;;;;;3.03;2.20;;;12.20;99.90;;;;;;5017884;28;20024;-66
2023/06/06 04:31:30;;;;;;;8.75;2.05;;;12.30;99.90;;;;;;5017241;28;20030;-67
2023/06/06 04:33:57;;;;;;;9.45;2.80;;;12.20;99.90;;;;;;5025751;28;20021;-67
2023/06/06 04:36:26;;;;;;;6.55;3.42;;;12.20;99.90;;;;;;5028649;28;20486;-66
2023/06/06 04:38:53;;;;;;;7.97;2.95;;;12.20;99.90;;;;;;5028202;28;20025;-65
2023/06/06 04:41:23;;;;;;;7.15;2.70;;;12.30;99.90;;;;;;5026345;28;20112;-67
2023/06/06 04:43:49;;;;;;;8.13;2.90;;;12.30;99.90;;;;;;5022963;28;20083;-68
2023/06/06 04:46:21;;;;;;;4.47;2.73;;;12.30;99.90;;;;;;5021138;28;20041;-65
2023/06/06 04:48:54;;;;;;;7.75;2.92;;;12.30;99.90;;;;;;5024872;28;20420;-66
2023/06/06 04:51:29;;;;;;;9.63;2.90;;;12.30;99.90;;;;;;5022105;28;20026;-66
2023/06/06 04:53:58;;;;;;;2.88;1.88;;;12.30;99.90;;;;;;5033534;28;20100;-75
2023/06/06 04:56:28;;;;;;;7.05;2.17;;;12.30;99.90;;;;;;5024059;28;20076;-66
2023/06/06 04:58:57;;;;;;;5.93;2.25;;;12.30;99.90;;;;;;5024442;28;20030;-66
2023/06/06 05:01:23;;;;;;;9.73;3.40;;;12.30;99.90;;;;;;5029916;28;20455;-76
2023/06/06 05:03:52;;;;;;;10.00;2.83;;;12.30;99.90;;;;;;5016640;28;20482;-68
2023/06/06 05:06:18;;;;;;;9.15;3.42;;;12.30;99.90;;;;;;5026036;28;20100;-65
2023/06/06 05:08:46;;;;;;;5.53;3.57;;;12.40;99.90;;;;;;5022726;28;20100;-67
2023/06/06 05:11:12;;;;;;;15.15;3.58;;;12.40;99.90;;;;;;5023428;28;20014;-65
2023/06/06 05:13:38;;;;;;;3.50;2.42;;;12.30;99.90;;;;;;5021470;28;20908;-65
2023/06/06 05:16:04;;;;;;;5.67;2.83;;;12.20;99.90;;;;;;5025781;28;20042;-66
2023/06/06 05:18:30;;;;;;;12.53;2.03;;;12.30;99.90;;;;;;5024458;28;20075;-66
2023/06/06 05:21:00;;;;;;;7.45;3.03;;;12.30;99.90;;;;;;5023582;28;20034;-66
2023/06/06 05:23:30;;;;;;;6.40;2.67;;;12.30;99.90;;;;;;5029076;28;20017;-67
2023/06/06 05:25:57;;;;;;;7.53;2.92;;;12.40;99.90;;;;;;5026262;28;20098;-74
2023/06/06 05:28:24;;;;;;;10.40;3.38;;;12.40;99.90;;;;;;5026251;28;20435;-67
2023/06/06 05:30:52;;;;;;;10.15;2.70;;;12.40;99.90;;;;;;5020991;28;20317;-66
2023/06/06 05:33:21;;;;;;;5.38;2.97;;;12.40;99.90;;;;;;5027919;28;20053;-67
2023/06/06 05:35:47;;;;;;;7.28;2.17;;;12.40;99.90;;;;;;5027034;28;20018;-74
2023/06/06 05:38:14;;;;;;;9.25;3.90;;;12.40;99.90;;;;;;5028004;28;20416;-66
2023/06/06 05:40:40;;;;;;;5.55;3.63;;;12.50;99.90;;;;;;5015605;28;20038;-66
2023/06/06 05:43:05;;;;;;;6.00;2.67;;;12.50;99.90;;;;;;5026408;28;20029;-65
2023/06/06 05:45:31;;;;;;;2.70;2.03;;;12.50;99.90;;;;;;5026674;28;20028;-65
2023/06/06 05:47:56;;;;;;;6.10;2.67;;;12.60;99.90;;;;;;5029557;28;20022;-66
2023/06/06 05:50:22;;;;;;;3.40;2.17;;;12.70;99.90;;;;;;5024212;28;20076;-65
2023/06/06 05:52:48;;;;;;;10.03;3.53;;;12.60;99.90;;;;;;5031757;28;20029;-66
2023/06/06 05:55:27;;;;;;;4.17;2.07;;;12.70;99.90;;;;;;5029952;28;20033;-66
2023/06/06 05:57:53;;;;;;;4.65;2.55;;;12.80;99.90;;;;;;5024619;28;20036;-64
2023/06/06 06:00:19;;;;;;;11.03;3.03;;;12.80;99.90;;;;;;5021415;28;20034;-68
2023/06/06 06:02:45;;;;;;;6.70;3.07;;;12.90;99.90;;;;;;5027693;28;20053;-65
2023/06/06 06:05:11;;;;;;;10.10;2.30;;;13.00;99.90;;;;;;5031418;28;20029;-65
2023/06/06 06:07:39;;;;;;;6.10;2.73;;;13.10;99.90;;;;;;5021152;28;20036;-75
2023/06/06 06:10:05;;;;;;;7.35;3.20;;;13.10;99.90;;;;;;5028198;28;20286;-67
2023/06/06 06:12:31;;;;;;;4.93;2.30;;;13.10;99.90;;;;;;5029166;28;20026;-65
2023/06/06 06:14:57;;;;;;;8.20;2.90;;;13.10;99.90;;;;;;5035305;28;20426;-66
2023/06/06 06:17:25;;;;;;;10.20;2.33;;;13.00;99.90;;;;;;5028081;28;20029;-65
2023/06/06 06:19:51;;;;;;;4.25;2.25;;;12.90;99.90;;;;;;5026276;28;20027;-68
2023/06/06 06:22:17;;;;;;;5.25;2.78;;;12.90;99.90;;;;;;5025645;28;20474;-67
2023/06/06 06:24:43;;;;;;;5.90;2.80;;;13.10;99.90;;;;;;5021214;28;20050;-67
2023/06/06 06:27:09;;;;;;;4.83;1.80;;;13.10;99.90;;;;;;5013053;28;20443;-66
2023/06/06 06:29:35;;;;;;;3.53;1.93;;;13.20;99.90;;;;;;5024600;28;20319;-66
2023/06/06 06:32:02;;;;;;;8.23;2.03;;;13.20;99.90;;;;;;5020168;28;20030;-67
2023/06/06 06:34:28;;;;;;;4.57;2.55;;;13.20;99.90;;;;;;5014521;28;20037;-74
2023/06/06 06:36:54;;;;;;;2.77;1.73;;;13.30;99.90;;;;;;5020910;28;20128;-66
2023/06/06 06:39:20;;;;;;;8.52;2.08;;;13.40;99.90;;;;;;5018353;28;20535;-66
2023/06/06 06:41:46;;;;;;;8.77;2.00;;;13.30;99.90;;;;;;5023046;28;20116;-66
2023/06/06 06:44:12;;;;;;;6.30;2.15;;;13.30;99.90;;;;;;5020711;28;20428;-67
2023/06/06 06:46:39;;;;;;;6.20;2.13;;;13.20;99.90;;;;;;5008861;28;20036;-75
2023/06/06 06:49:15;;;;;;;3.60;1.65;;;13.20;99.90;;;;;;5025080;28;20546;-68
2023/06/06 06:51:41;;;;;;;8.57;1.73;;;13.30;99.90;;;;;;5020695;28;20030;-67
2023/06/06 06:54:10;;;;;;;;;;;13.30;99.90;;;;;;5021397;28;20053;-66
2023/06/06 06:56:36;;;;;;;5.85;1.77;;;13.40;99.90;;;;;;5026725;28;19917;-66
2023/06/06 06:59:03;;;;;;;6.40;2.17;;;13.60;99.90;;;;;;5027323;28;20022;-69
2023/06/06 07:01:29;;;;;;;8.50;2.92;;;13.60;99.90;;;;;;5025577;28;20466;-68
2023/06/06 07:03:55;;;;;;;4.03;1.90;;;13.70;99.90;;;;;;5025554;28;20044;-67
2023/06/06 07:06:22;;;;;;;6.87;2.70;;;13.70;99.90;;;;;;5031651;28;20037;-74
2023/06/06 07:08:49;;;;;;;;;;;13.90;99.90;;;;;;5028201;28;20104;-67
2023/06/06 07:11:15;;;;;;;3.53;1.45;;;13.90;99.90;;;;;;5028304;28;20262;-66
2023/06/06 07:13:41;;;;;;;4.77;2.20;;;14.00;99.90;;;;;;5020652;28;20030;-66
2023/06/06 07:16:08;;;;;;;4.20;1.77;;;13.90;99.90;;;;;;5029133;28;20033;-66
2023/06/06 07:18:34;;;;;;;4.63;1.90;;;14.00;99.90;;;;;;5016333;28;20026;-67
2023/06/06 07:21:00;;;;;;;13.83;2.50;;;14.00;99.90;;;;;;5022640;28;20051;-67
2023/06/06 07:23:26;;;;;;;8.23;1.83;;;14.10;99.90;;;;;;5012683;28;20033;-78
2023/06/06 07:25:52;;;;;;;7.27;2.30;;;14.00;99.90;;;;;;5024431;28;20040;-68
2023/06/06 07:28:18;;;;;;;12.80;1.60;;;14.00;99.90;;;;;;5019974;28;20058;-67
2023/06/06 07:30:44;;;;;;;6.05;2.78;;;14.10;99.90;;;;;;5024069;28;20053;-66
2023/06/06 07:33:10;;;;;;;5.90;2.38;;;14.20;99.90;;;;;;5028497;28;20059;-68
2023/06/06 07:35:36;;;;;;;4.10;2.20;;;14.20;99.90;;;;;;5020054;28;20030;-67
2023/06/06 07:38:02;;;;;;;6.05;2.47;;;14.20;99.90;;;;;;5026593;28;20100;-67
2023/06/06 07:40:28;;;;;;;6.50;2.90;;;14.40;99.90;;;;;;5023360;28;20037;-68
2023/06/06 07:42:57;;;;;;;5.03;1.98;;;14.20;99.90;;;;;;5022881;28;20033;-67
2023/06/06 07:45:24;;;;;;;2.60;1.42;;;14.10;99.90;;;;;;5029535;28;20377;-66
2023/06/06 07:47:50;;;;;;;4.38;2.67;;;14.10;99.90;;;;;;5014547;28;20109;-68
2023/06/06 07:50:17;;;;;;;6.13;2.30;;;14.10;99.90;;;;;;5019268;28;20112;-76
2023/06/06 07:52:44;;;;;;;9.13;2.63;;;14.20;99.90;;;;;;5025831;28;20091;-68
2023/06/06 07:55:11;;;;;;;3.97;2.08;;;14.20;99.90;;;;;;5031095;28;20025;-66
2023/06/06 07:57:40;;;;;;;4.07;1.42;;;14.20;99.90;;;;;;5032628;28;20420;-66
2023/06/06 08:00:10;;;;;;;4.05;1.45;;;14.20;99.90;;;;;;5020967;28;20030;-66
2023/06/06 08:02:37;;;;;;;3.33;2.47;;;14.20;99.90;;;;;;5023271;28;20028;-67
2023/06/06 08:05:04;;;;;;;3.63;2.10;;;14.30;99.90;;;;;;5021972;28;20026;-67
2023/06/06 08:07:29;;;;;;;;;;;14.30;99.90;;;;;;5035310;28;20028;-73
2023/06/06 08:09:55;;;;;;;9.50;2.93;;;14.30;99.90;;;;;;5032032;28;19912;-67
2023/06/06 08:12:21;;;;;;;9.47;3.47;;;14.30;99.90;;;;;;5032562;28;20034;-67
2023/06/06 08:14:46;;;;;;;8.60;2.30;;;14.40;99.90;;;;;;5025676;28;20026;-67
2023/06/06 08:17:12;;;;;;;4.47;3.53;;;14.40;99.90;;;;;;5030626;28;20025;-68
2023/06/06 08:19:38;;;;;;;16.67;3.73;;;14.60;99.90;;;;;;5035235;28;20737;-68
2023/06/06 08:22:04;;;;;;;6.93;2.63;;;14.60;99.90;;;;;;5034904;28;20033;-66
2023/06/06 08:24:31;;;;;;;22.42;5.15;;;14.70;99.90;;;;;;5025166;28;20097;-67
2023/06/06 08:26:57;;;;;;;;;;;14.70;99.90;;;;;;5027380;28;20033;-68
2023/06/06 08:29:23;;;;;;;4.53;2.85;;;14.80;99.90;;;;;;5033148;28;20255;-67
2023/06/06 08:31:50;;;;;;;6.10;2.97;;;15.00;99.90;;;;;;5026739;28;20095;-67
2023/06/06 08:34:16;;;;;;;8.90;2.97;;;15.10;99.90;;;;;;5020262;28;20444;-67
2023/06/06 08:36:41;;;;;;;5.63;2.30;;;15.00;99.90;;;;;;5031802;28;20146;-66
2023/06/06 08:39:07;;;;;;;5.73;3.40;;;15.00;99.90;;;;;;5013962;28;20041;-67
2023/06/06 08:41:33;;;;;;;7.17;3.30;;;15.10;99.90;;;;;;5019671;28;20117;-67
2023/06/06 08:44:02;;;;;;;12.43;3.38;;;15.20;99.90;;;;;;5026517;28;20029;-70
2023/06/06 08:46:39;;;;;;;7.80;3.50;;;15.20;99.90;;;;;;5028175;28;20332;-66
2023/06/06 08:49:05;;;;;;;6.50;3.17;;;15.30;99.90;;;;;;5038444;28;20013;-67
2023/06/06 08:51:31;;;;;;;11.00;3.87;;;15.20;99.90;;;;;;5027400;28;20037;-67
2023/06/06 08:53:59;;;;;;;9.32;3.00;;;15.20;99.90;;;;;;5034469;28;20353;-66
2023/06/06 08:56:26;;;;;;;3.88;2.72;;;15.40;99.90;;;;;;5025646;28;20495;-70
2023/06/06 08:58:52;;;;;;;11.27;4.32;;;15.40;99.90;;;;;;5028375;28;20045;-68
2023/06/06 09:01:20;;;;;;;5.40;2.50;;;15.50;99.90;;;;;;5025485;28;20439;-66
2023/06/06 09:03:48;;;;;;;13.13;4.18;;;15.50;99.90;;;;;;5022025;28;20045;-67
2023/06/06 09:06:16;;;;;;;8.48;2.95;;;15.40;99.90;;;;;;5033448;28;20029;-67
2023/06/06 09:08:44;;;;;;;16.15;4.63;;;15.30;99.90;;;;;;5033960;28;20408;-67
2023/06/06 09:11:10;;;;;;;9.15;3.95;;;15.40;99.90;;;;;;5029968;28;20045;-66
2023/06/06 09:13:39;;;;;;;54.65;11.38;;;15.60;99.90;;;;;;5020222;28;20041;-74
2023/06/06 09:16:05;;;;;;;3.42;2.13;;;15.40;99.90;;;;;;5013698;28;20036;-66
2023/06/06 09:18:32;;;;;;;4.30;2.47;;;15.60;99.90;;;;;;5034463;28;20031;-67
2023/06/06 09:20:58;;;;;;;;;;;15.40;99.90;;;;;;5034470;28;20030;-79
2023/06/06 09:23:31;;;;;;;7.00;3.53;;;15.40;99.90;;;;;;5034657;28;19913;-67
2023/06/06 09:25:57;;;;;;;13.52;4.03;;;15.60;99.90;;;;;;5019570;28;20022;-68
2023/06/06 09:28:39;;;;;;;11.48;3.60;;;15.70;99.90;;;;;;5016036;28;20386;-68
2023/06/06 09:31:25;;;;;;;8.57;4.40;;;15.70;99.90;;;;;;5018360;28;20026;-67
2023/06/06 09:33:53;;;;;;;8.57;3.50;;;15.80;99.90;;;;;;5034361;28;20309;-69
2023/06/06 09:36:27;;;;;;;16.13;4.63;;;15.80;99.90;;;;;;5014359;28;20034;-67
2023/06/06 09:39:05;;;;;;;9.10;3.35;;;15.90;99.90;;;;;;5018481;28;20022;-67
2023/06/06 09:41:38;;;;;;;9.43;2.92;;;15.80;99.90;;;;;;5022581;28;20432;-67
2023/06/06 09:44:04;;;;;;;6.28;2.72;;;15.80;99.90;;;;;;5018863;28;20030;-66
2023/06/06 09:46:36;;;;;;;4.57;2.53;;;15.80;99.90;;;;;;5031596;28;20312;-67
2023/06/06 09:49:03;;;;;;;8.23;2.88;;;15.80;99.90;;;;;;5026179;28;20239;-68
2023/06/06 09:51:30;;;;;;;9.48;3.17;;;15.90;99.90;;;;;;5031364;28;20022;-66
2023/06/06 09:53:58;;;;;;;6.40;2.35;;;15.90;99.90;;;;;;5024250;28;20547;-67
2023/06/06 09:56:24;;;;;;;3.47;1.65;;;15.90;99.90;;;;;;5036320;28;20128;-68
2023/06/06 09:58:55;;;;;;;;;;;16.00;99.90;;;;;;5025229;28;20018;-66
2023/06/06 10:01:32;;;;;;;4.53;2.60;;;16.10;99.90;;;;;;5017191;28;19909;-67
2023/06/06 10:03:58;;;;;;;6.50;2.47;;;16.10;99.90;;;;;;5021862;28;20420;-68
2023/06/06 10:06:28;;;;;;;5.23;1.60;;;16.10;99.90;;;;;;5027080;28;20084;-66
2023/06/06 10:08:54;;;;;;;7.13;3.03;;;16.00;99.90;;;;;;5034510;28;20025;-68
2023/06/06 10:11:22;;;;;;;10.00;3.92;;;16.10;99.90;;;;;;5028441;28;20022;-66
2023/06/06 10:13:51;;;;;;;6.32;2.83;;;16.10;99.90;;;;;;5018402;28;20049;-68
2023/06/06 10:16:19;;;;;;;6.80;2.92;;;16.20;99.90;;;;;;5021414;28;20084;-74
2023/06/06 10:18:46;;;;;;;6.22;3.22;;;16.30;99.90;;;;;;5017204;28;20092;-67
2023/06/06 10:21:16;;;;;;;5.60;2.72;;;16.30;99.90;;;;;;5030029;28;20442;-66
2023/06/06 10:23:42;;;;;;;5.47;2.25;;;16.30;99.90;;;;;;5027979;28;20033;-67
2023/06/06 10:26:17;;;;;;;7.78;2.97;;;16.30;99.90;;;;;;5030965;28;20471;-68
2023/06/06 10:29:01;;;;;;;9.63;2.95;;;16.40;99.90;;;;;;5014928;28;20432;-73
2023/06/06 10:31:48;;;;;;;14.00;3.80;;;16.60;99.90;;;;;;5017924;28;20026;-76
2023/06/06 10:34:19;;;;;;;5.93;3.60;;;16.60;99.90;;;;;;5016143;28;20095;-67
2023/06/06 10:36:45;;;;;;;3.90;2.05;;;16.70;99.90;;;;;;5025663;28;20087;-74
2023/06/06 10:39:28;;;;;;;8.17;3.23;;;16.60;99.90;;;;;;5021577;28;20408;-66
2023/06/06 10:42:07;;;;;;;6.63;2.58;;;16.50;99.90;;;;;;5034563;28;20037;-67
2023/06/06 10:44:45;;;;;;;5.38;2.85;;;16.60;99.90;;;;;;5036990;28;20032;-66
2023/06/06 10:47:32;;;;;;;10.68;2.75;;;16.60;99.90;;;;;;5009677;28;20030;-68
2023/06/06 10:50:13;;;;;;;6.75;2.65;;;16.60;99.90;;;;;;5017832;28;20099;-68
2023/06/06 10:52:59;;;;;;;6.65;2.95;;;16.70;99.90;;;;;;5025593;28;20113;-73
2023/06/06 10:55:25;;;;;;;;;;;16.70;99.90;;;;;;5016275;28;20305;-66
2023/06/06 10:57:53;;;;;;;4.27;2.27;;;16.80;99.90;;;;;;5025964;28;19931;-67
2023/06/06 11:00:25;;;;;;;3.00;1.85;;;16.90;99.90;;;;;;5033024;28;20258;-67
2023/06/06 11:02:52;;;;;;;9.07;3.22;;;16.90;99.90;;;;;;5030907;28;20026;-68
2023/06/06 11:05:21;;;;;;;6.03;3.53;;;17.00;99.90;;;;;;5021338;28;20064;-67
2023/06/06 11:07:51;;;;;;;11.30;2.88;;;16.90;99.90;;;;;;5020508;28;20057;-67
2023/06/06 11:10:21;;;;;;;3.75;2.05;;;16.90;99.90;;;;;;5027454;28;20037;-68
2023/06/06 11:12:49;;;;;;;4.93;2.63;;;17.10;99.90;;;;;;5022915;28;20027;-75
2023/06/06 11:15:34;;;;;;;3.00;2.38;;;17.00;99.90;;;;;;5026521;28;20033;-67
2023/06/06 11:18:03;;;;;;;10.88;3.70;;;17.30;99.90;;;;;;5021998;28;20037;-67
2023/06/06 11:20:37;;;;;;;4.00;2.42;;;17.30;99.90;;;;;;5029438;28;20063;-68
2023/06/06 11:23:03;;;;;;;7.03;2.58;;;17.40;99.90;;;;;;5026008;28;20032;-68
2023/06/06 11:25:36;;;;;;;5.18;2.55;;;17.40;99.90;;;;;;5028017;28;20057;-68
2023/06/06 11:28:05;;;;;;;7.15;2.90;;;17.30;99.90;;;;;;5029792;28;20050;-66
2023/06/06 11:30:32;;;;;;;8.13;3.15;;;17.20;99.90;;;;;;5029637;28;20078;-66
2023/06/06 11:32:59;;;;;;;6.18;2.83;;;17.20;99.90;;;;;;5030206;28;20101;-67
2023/06/06 11:35:28;;;;;;;;;;;17.10;99.90;;;;;;5027557;28;20087;-76
2023/06/06 11:37:53;;;;;;;6.20;3.67;;;17.10;99.90;;;;;;5028573;28;20016;-67
2023/06/06 11:40:19;;;;;;;6.17;1.87;;;17.10;99.90;;;;;;5019357;28;20123;-67
2023/06/06 11:42:45;;;;;;;2.67;1.37;;;17.10;99.90;;;;;;5029398;28;20155;-65
2023/06/06 11:45:15;;;;;;;5.45;2.13;;;17.00;99.90;;;;;;5027074;28;20032;-68
2023/06/06 11:47:42;;;;;;;2.03;1.63;;;17.10;99.90;;;;;;5023052;28;20030;-66
2023/06/06 11:50:09;;;;;;;3.53;1.60;;;17.10;99.90;;;;;;5026038;28;20034;-66
2023/06/06 11:52:50;;;;;;;5.85;2.83;;;17.20;99.90;;;;;;5021473;28;20087;-66
2023/06/06 11:55:17;;;;;;;4.30;2.47;;;17.30;99.90;;;;;;5023328;28;20073;-67
2023/06/06 11:57:43;;;;;;;5.43;1.65;;;17.40;99.90;;;;;;5022942;28;20406;-67
2023/06/06 12:00:15;;;;;;;4.80;2.70;;;17.40;99.90;;;;;;5026448;28;20157;-67
2023/06/06 12:02:41;;;;;;;4.18;2.55;;;17.30;99.90;;;;;;5021948;28;20420;-67
2023/06/06 12:05:21;;;;;;;7.97;3.92;;;17.30;99.90;;;;;;5032547;28;20028;-68
2023/06/06 12:07:49;;;;;;;13.65;3.90;;;17.40;99.90;;;;;;5025244;28;20042;-68
2023/06/06 12:10:23;;;;;;;7.13;3.13;;;17.60;99.90;;;;;;5031390;28;20021;-67
2023/06/06 12:12:49;;;;;;;2.72;0.98;;;17.40;99.90;;;;;;5020518;28;20087;-69
2023/06/06 12:15:15;;;;;;;7.65;3.35;;;17.50;99.90;;;;;;5032407;28;20033;-66
2023/06/06 12:17:41;;;;;;;6.63;2.10;;;17.40;99.90;;;;;;5028372;28;20071;-67
2023/06/06 12:20:07;;;;;;;5.70;2.23;;;17.40;99.90;;;;;;5026327;28;20040;-67
2023/06/06 12:22:35;;;;;;;7.43;3.60;;;17.30;99.90;;;;;;5026548;28;20455;-68
2023/06/06 12:25:02;;;;;;;8.40;3.38;;;17.30;99.90;;;;;;5027464;28;20487;-68
2023/06/06 12:27:33;;;;;;;6.55;2.47;;;17.40;99.90;;;;;;5027911;28;20076;-67
2023/06/06 12:30:00;;;;;;;4.18;2.55;;;17.30;99.90;;;;;;5027311;28;20034;-67
2023/06/06 12:32:29;;;;;;;25.23;3.58;;;17.30;99.90;;;;;;5015452;28;20028;-67
2023/06/06 12:34:59;;;;;;;8.75;2.80;;;17.30;99.90;;;;;;5027117;28;20021;-67
2023/06/06 12:37:47;;;;;;;7.50;3.53;;;17.40;99.90;;;;;;5028538;28;20449;-67
2023/06/06 12:40:23;;;;;;;9.63;2.67;;;17.60;99.90;;;;;;5019403;28;20029;-67
2023/06/06 12:42:52;;;;;;;7.63;3.95;;;17.80;99.90;;;;;;5021331;28;20390;-72
2023/06/06 12:45:19;;;;;;;7.47;3.85;;;17.80;99.90;;;;;;5024116;28;20029;-68
2023/06/06 12:47:46;;;;;;;;;;;17.60;99.90;;;;;;5031875;28;20104;-68
2023/06/06 12:50:12;;;;;;;4.13;2.55;;;17.50;99.90;;;;;;5029413;28;19906;-67
2023/06/06 12:52:38;;;;;;;7.10;3.63;;;17.40;99.90;;;;;;5021397;28;20054;-67